Time;durP1;ratioP1;P1;durP2;ratioP2;P2;SDS_P1;SDS_P2;PMS_P1;PMS_P2;Temp;Humidity;BMP_temperature;BMP_pressure;BME280_temperature;BME280_humidity;BME280_pressure;Samples;Min_cycle;Max_cycle;Signal;HPM_P1;HPM_P2
2022/03/25 00:00:25;;;;;;;29.77;16.43;;;15.60;52.30;;;;;;10316614;28;20256;-88
2022/03/25 00:05:28;;;;;;;24.30;14.97;;;15.70;52.30;;;;;;10316547;28;20791;-89
2022/03/25 00:10:31;;;;;;;33.23;16.97;;;15.70;52.30;;;;;;10334353;28;20241;-89
2022/03/25 00:15:33;;;;;;;27.73;17.10;;;15.50;52.50;;;;;;10315459;28;20244;-88
2022/03/25 00:20:36;;;;;;;28.87;15.70;;;15.50;52.50;;;;;;10316035;28;20256;-88
2022/03/25 00:25:38;;;;;;;30.50;17.27;;;15.60;52.40;;;;;;10315015;28;20244;-88
2022/03/25 00:30:42;;;;;;;29.70;16.93;;;15.70;52.20;;;;;;10333027;28;20240;-88
2022/03/25 00:35:45;;;;;;;36.07;20.77;;;15.70;52.00;;;;;;10299246;28;20248;-88
2022/03/25 00:40:47;;;;;;;27.60;16.53;;;15.60;51.80;;;;;;10314637;28;20256;-87
2022/03/25 00:45:51;;;;;;;31.00;16.57;;;15.40;52.60;;;;;;10315016;28;20240;-88
2022/03/25 00:50:54;;;;;;;34.37;18.60;;;15.40;52.60;;;;;;10313853;28;20649;-89
2022/03/25 00:55:56;;;;;;;30.43;17.77;;;15.40;52.50;;;;;;10313758;28;20248;-89
2022/03/25 01:00:59;;;;;;;32.27;17.43;;;15.50;52.50;;;;;;10314029;28;20260;-89
2022/03/25 01:06:04;;;;;;;31.37;17.90;;;15.50;52.40;;;;;;10313379;28;20236;-88
2022/03/25 01:11:07;;;;;;;26.80;17.73;;;15.40;52.50;;;;;;10312716;28;20220;-90
2022/03/25 01:16:09;;;;;;;28.03;17.80;;;15.50;52.50;;;;;;10312931;28;20279;-89
2022/03/25 01:21:12;;;;;;;32.27;17.60;;;15.50;52.40;;;;;;10297364;28;20252;-89
2022/03/25 01:26:16;;;;;;;32.23;18.23;;;15.50;52.20;;;;;;10312938;28;20250;-89
2022/03/25 01:31:19;;;;;;;36.23;19.23;;;15.50;52.20;;;;;;10312604;28;20290;-89
2022/03/25 01:36:22;;;;;;;29.93;18.77;;;15.50;52.30;;;;;;10313148;28;20606;-89
2022/03/25 01:41:25;;;;;;;33.60;18.70;;;15.40;52.30;;;;;;10312604;28;20302;-89
2022/03/25 01:46:27;;;;;;;33.40;19.50;;;15.30;52.50;;;;;;10296325;28;20237;-90
2022/03/25 01:51:34;;;;;;;29.63;17.60;;;15.40;52.50;;;;;;10329563;28;20667;-89
2022/03/25 01:56:36;;;;;;;34.30;20.00;;;15.50;52.30;;;;;;10295728;28;20240;-89
2022/03/25 02:01:40;;;;;;;30.60;19.43;;;15.50;52.20;;;;;;10312410;28;20652;-89
2022/03/25 02:06:45;;;;;;;34.47;19.23;;;15.50;52.20;;;;;;10310997;28;20683;-89
2022/03/25 02:11:48;;;;;;;34.23;19.63;;;15.40;52.30;;;;;;10311000;28;20240;-89
2022/03/25 02:16:51;;;;;;;28.93;18.47;;;15.30;52.50;;;;;;10310129;28;20317;-88
2022/03/25 02:21:54;;;;;;;36.10;21.83;;;15.30;52.50;;;;;;10311313;28;20259;-88
2022/03/25 02:27:03;;;;;;;36.13;20.10;;;15.40;52.40;;;;;;10309762;28;20982;-89
2022/03/25 02:32:06;;;;;;;35.87;21.00;;;15.30;52.50;;;;;;10257808;28;20245;-89
2022/03/25 02:37:14;;;;;;;29.50;19.63;;;15.40;52.40;;;;;;10270011;28;20233;-88
2022/03/25 02:42:17;;;;;;;32.07;19.60;;;15.40;52.30;;;;;;10279404;28;20384;-89
2022/03/25 02:47:20;;;;;;;28.63;18.80;;;15.30;52.40;;;;;;10294267;28;20283;-88
2022/03/25 02:52:22;;;;;;;31.73;20.07;;;15.20;52.40;;;;;;10293315;28;20802;-89
2022/03/25 02:57:25;;;;;;;34.27;19.60;;;15.40;52.30;;;;;;10309110;28;20236;-89
2022/03/25 03:02:27;;;;;;;30.93;19.43;;;15.40;52.30;;;;;;10310036;28;20253;-88
2022/03/25 03:07:30;;;;;;;32.90;18.33;;;15.40;52.20;;;;;;10309487;28;20648;-89
2022/03/25 03:12:33;;;;;;;29.47;19.37;;;15.30;52.20;;;;;;10293618;28;20228;-89
2022/03/25 03:17:36;;;;;;;35.90;19.67;;;15.40;52.10;;;;;;10314898;28;20221;-88
2022/03/25 03:22:38;;;;;;;29.90;19.30;;;15.40;52.10;;;;;;10317451;28;20256;-89
2022/03/25 03:27:41;;;;;;;31.03;18.93;;;15.30;52.20;;;;;;10317362;28;20229;-89
2022/03/25 03:32:43;;;;;;;33.07;18.77;;;15.40;52.10;;;;;;10317465;28;20243;-90
2022/03/25 03:37:46;;;;;;;33.20;19.90;;;15.50;51.80;;;;;;10318111;28;20796;-90
2022/03/25 03:42:49;;;;;;;33.23;19.23;;;15.50;51.90;;;;;;10307303;28;20256;-89
2022/03/25 03:47:52;;;;;;;31.03;18.73;;;15.40;52.10;;;;;;10334011;28;20228;-90
2022/03/25 03:52:54;;;;;;;32.40;19.67;;;15.30;52.30;;;;;;10316264;28;20323;-90
2022/03/25 03:57:57;;;;;;;36.83;20.03;;;15.20;52.20;;;;;;10334452;28;20248;-90
2022/03/25 04:03:00;;;;;;;33.07;19.90;;;15.20;52.40;;;;;;10315768;28;20262;-91
2022/03/25 04:08:04;;;;;;;30.00;19.13;;;15.20;52.50;;;;;;10333525;28;20240;-90
2022/03/25 04:13:06;;;;;;;29.90;18.83;;;15.20;52.40;;;;;;10305557;28;20236;-90
2022/03/25 04:18:09;;;;;;;31.33;19.53;;;15.10;52.60;;;;;;10341699;28;20663;-91
2022/03/25 04:23:12;;;;;;;34.73;19.87;;;15.10;52.70;;;;;;10355129;28;20244;-89
2022/03/25 04:28:15;;;;;;;39.70;19.07;;;15.00;52.60;;;;;;10333613;28;20232;-88
2022/03/25 04:33:17;;;;;;;31.97;20.03;;;14.90;52.90;;;;;;10335142;28;20225;-90
2022/03/25 04:38:20;;;;;;;29.13;18.60;;;14.90;52.80;;;;;;10322700;28;20229;-89
2022/03/25 04:43:22;;;;;;;33.67;20.73;;;15.00;52.80;;;;;;10314796;28;20256;-90
2022/03/25 04:48:25;;;;;;;33.20;19.70;;;14.90;52.80;;;;;;10298110;28;20247;-88
2022/03/25 04:53:27;;;;;;;35.00;20.53;;;15.00;52.70;;;;;;10313901;28;20740;-88
2022/03/25 04:58:30;;;;;;;32.23;19.50;;;15.00;52.70;;;;;;10314477;28;20266;-88
2022/03/25 05:03:33;;;;;;;32.30;19.63;;;15.00;52.50;;;;;;10313294;28;20272;-89
2022/03/25 05:08:35;;;;;;;33.37;19.10;;;15.00;52.50;;;;;;10313008;28;20946;-89
2022/03/25 05:13:39;;;;;;;29.47;18.93;;;15.00;52.60;;;;;;10297333;28;20272;-90
2022/03/25 05:18:42;;;;;;;31.60;19.10;;;15.10;52.40;;;;;;10312728;28;20591;-89
2022/03/25 05:23:44;;;;;;;34.30;19.57;;;15.10;52.20;;;;;;10329979;28;20650;-91
2022/03/25 05:28:47;;;;;;;31.70;19.40;;;15.20;52.20;;;;;;10330386;28;20236;-89
2022/03/25 05:33:50;;;;;;;34.10;19.53;;;15.10;52.20;;;;;;10312212;28;20271;-89
2022/03/25 05:38:52;;;;;;;28.83;18.70;;;15.20;52.10;;;;;;10311118;28;20205;-90
2022/03/25 05:43:55;;;;;;;27.00;18.67;;;15.20;52.70;;;;;;10295603;28;20256;-88
2022/03/25 05:48:58;;;;;;;31.87;18.97;;;15.20;52.10;;;;;;10311634;28;20289;-89
2022/03/25 05:54:01;;;;;;;30.23;19.70;;;15.10;52.30;;;;;;10311333;28;20268;-88
2022/03/25 05:59:03;;;;;;;36.73;20.93;;;15.10;52.40;;;;;;10295308;28;20662;-88
2022/03/25 06:04:05;;;;;;;32.33;19.17;;;15.00;52.50;;;;;;10328865;28;20258;-89
2022/03/25 06:09:08;;;;;;;34.80;20.13;;;15.00;52.60;;;;;;10311481;28;20238;-89
2022/03/25 06:14:10;;;;;;;32.97;21.33;;;14.90;52.60;;;;;;10310606;28;20236;-89
2022/03/25 06:19:13;;;;;;;31.77;19.87;;;14.90;52.60;;;;;;10331303;28;20601;-90
2022/03/25 06:24:16;;;;;;;32.63;20.10;;;14.90;52.70;;;;;;10311364;28;20257;-89
2022/03/25 06:29:19;;;;;;;33.03;19.83;;;14.90;52.60;;;;;;10310893;28;20284;-90
2022/03/25 06:34:23;;;;;;;36.30;21.53;;;14.80;52.90;;;;;;10310905;28;20287;-90
2022/03/25 06:39:25;;;;;;;66.10;35.50;;;14.80;52.80;;;;;;10299491;28;20264;-89
2022/03/25 06:44:28;;;;;;;60.37;34.43;;;14.60;48.60;;;;;;10327027;28;20244;-89
2022/03/25 06:49:34;;;;;;;57.23;34.10;;;14.60;48.90;;;;;;10327393;28;20242;-90
2022/03/25 06:54:39;;;;;;;50.63;30.07;;;14.70;49.50;;;;;;10313967;28;20298;-90
2022/03/25 06:59:43;;;;;;;53.73;31.07;;;14.80;49.50;;;;;;10331565;28;20270;-89
2022/03/25 07:04:48;;;;;;;50.27;29.07;;;14.90;49.40;;;;;;10347164;28;20249;-90
2022/03/25 07:09:54;;;;;;;72.53;36.67;;;15.00;49.40;;;;;;10309315;28;20295;-89
2022/03/25 07:14:56;;;;;;;47.33;29.73;;;14.20;50.40;;;;;;10310161;28;20242;-90
2022/03/25 07:20:08;;;;;;;46.40;28.07;;;14.70;50.30;;;;;;10313397;28;20213;-90
2022/03/25 07:25:12;;;;;;;47.77;30.37;;;14.40;51.00;;;;;;10327293;28;20256;-91
2022/03/25 07:30:16;;;;;;;50.53;28.63;;;14.60;50.80;;;;;;10309436;28;20208;-90
2022/03/25 07:35:19;;;;;;;61.27;32.10;;;14.00;54.30;;;;;;10309301;28;20221;-90
2022/03/25 07:40:22;;;;;;;59.43;29.63;;;13.70;51.10;;;;;;10308969;28;20295;-89
2022/03/25 07:45:25;;;;;;;60.63;29.43;;;14.10;53.50;;;;;;10308905;28;20303;-89
2022/03/25 07:50:27;;;;;;;49.13;27.67;;;14.30;50.00;;;;;;10295777;28;20232;-90
2022/03/25 07:55:30;;;;;;;54.07;30.47;;;14.40;49.00;;;;;;10309338;28;20294;-87
2022/03/25 08:00:35;;;;;;;53.07;29.13;;;;;;;;;;10299207;28;20197;-95
2022/03/25 08:05:38;;;;;;;55.50;29.43;;;9.50;86.60;;;;;;10321215;28;20231;-96
2022/03/25 08:10:41;;;;;;;60.57;29.33;;;8.80;61.20;;;;;;10342968;28;20209;-96
2022/03/25 08:15:44;;;;;;;56.30;29.67;;;8.90;61.90;;;;;;10351446;28;20236;-96
2022/03/25 08:20:48;;;;;;;60.50;27.73;;;9.30;63.70;;;;;;10348895;28;20259;-85
2022/03/25 08:31:13;;;;;;;47.43;20.93;;;11.40;63.60;;;;;;10338032;28;20771;-85
2022/03/25 08:36:17;;;;;;;49.60;27.57;;;;;;;;;;10337108;28;20221;-85
2022/03/25 08:41:20;;;;;;;53.20;19.97;;;;;;;;;;10339873;28;20308;-85
2022/03/25 08:46:23;;;;;;;40.70;20.03;;;13.20;91.80;;;;;;10330979;28;20228;-85
2022/03/25 08:51:29;;;;;;;53.30;29.60;;;14.40;57.40;;;;;;10349139;28;20325;-85
2022/03/25 08:56:31;;;;;;;62.00;31.83;;;13.90;57.50;;;;;;10320315;28;20245;-85
2022/03/25 09:01:34;;;;;;;54.13;29.70;;;13.00;60.00;;;;;;10342032;28;20685;-86
2022/03/25 09:06:40;;;;;;;35.53;19.97;;;14.10;57.90;;;;;;10317781;28;20228;-85
2022/03/25 09:11:43;;;;;;;51.50;29.07;;;;;;;;;;10304682;28;20240;-85
2022/03/25 09:16:48;;;;;;;25.60;15.90;;;15.30;54.80;;;;;;10310443;28;20232;-86
2022/03/25 09:21:51;;;;;;;51.27;28.63;;;16.40;53.30;;;;;;10296197;28;20282;-86
2022/03/25 09:26:54;;;;;;;53.10;27.97;;;13.90;57.20;;;;;;10297509;28;20278;-85
2022/03/25 09:31:56;;;;;;;30.63;16.73;;;13.50;59.00;;;;;;10313556;28;20213;-85
2022/03/25 09:37:21;;;;;;;40.23;22.73;;;14.00;58.90;;;;;;10310997;28;20299;-85
2022/03/25 09:42:24;;;;;;;23.73;13.10;;;14.30;57.60;;;;;;10299479;28;20690;-86
2022/03/25 09:47:26;;;;;;;57.37;31.43;;;16.90;53.00;;;;;;10294517;28;20221;-85
2022/03/25 09:52:34;;;;;;;32.57;19.53;;;15.00;54.00;;;;;;10299323;28;21051;-85
2022/03/25 09:57:57;;;;;;;23.23;13.63;;;;;;;;;;10332018;28;20628;-86
2022/03/25 10:02:59;;;;;;;19.97;14.03;;;17.70;51.00;;;;;;10310782;28;20291;-85
2022/03/25 10:08:04;;;;;;;55.87;29.20;;;18.30;50.00;;;;;;10311871;28;20627;-85
2022/03/25 10:13:08;;;;;;;52.97;29.60;;;15.60;52.80;;;;;;10327479;28;20266;-85
2022/03/25 10:18:11;;;;;;;60.53;31.10;;;14.30;56.30;;;;;;10304502;28;20278;-85
2022/03/25 10:23:20;;;;;;;23.23;14.30;;;16.30;52.70;;;;;;10327195;28;20248;-85
2022/03/25 10:28:36;;;;;;;21.03;12.73;;;17.50;51.70;;;;;;10310278;28;20295;-85
2022/03/25 10:33:59;;;;;;;18.63;12.73;;;17.50;51.40;;;;;;10327756;28;20232;-85
2022/03/25 10:39:06;;;;;;;20.97;13.23;;;17.90;50.50;;;;;;10238136;29;20245;-85
2022/03/25 10:44:10;;;;;;;24.23;15.93;;;17.60;51.40;;;;;;10224784;29;20262;-85
2022/03/25 10:49:16;;;;;;;41.20;23.77;;;18.20;49.90;;;;;;10240565;28;20234;-85
2022/03/25 10:54:24;;;;;;;19.37;13.13;;;16.10;53.00;;;;;;10225664;28;20264;-85
2022/03/25 10:59:29;;;;;;;29.80;16.27;;;17.60;51.50;;;;;;10228556;28;20258;-85
2022/03/25 11:04:32;;;;;;;18.73;11.27;;;15.70;54.20;;;;;;10235801;29;20318;-85
2022/03/25 11:09:35;;;;;;;17.43;11.80;;;17.20;52.20;;;;;;10246639;28;20230;-85
2022/03/25 11:14:38;;;;;;;15.73;10.93;;;17.30;51.90;;;;;;10302850;28;20236;-85
2022/03/25 11:19:43;;;;;;;18.27;12.00;;;17.40;51.40;;;;;;10310930;28;20727;-85
2022/03/25 11:24:50;;;;;;;14.23;10.47;;;17.30;51.50;;;;;;10325339;28;20641;-85
2022/03/25 11:29:56;;;;;;;16.17;11.03;;;18.20;50.00;;;;;;10325611;28;20217;-85
2022/03/25 11:34:58;;;;;;;29.33;17.03;;;18.40;49.30;;;;;;10307880;28;20265;-86
2022/03/25 11:40:14;;;;;;;18.23;12.50;;;18.20;48.50;;;;;;10332770;28;20279;-85
2022/03/25 11:45:24;;;;;;;16.90;11.27;;;18.10;49.90;;;;;;10315105;28;20888;-85
2022/03/25 11:50:34;;;;;;;27.07;14.50;;;18.40;49.30;;;;;;10282717;28;20300;-85
2022/03/25 11:55:56;;;;;;;54.93;20.87;;;18.20;48.40;;;;;;10292698;28;20272;-85
2022/03/25 12:01:02;;;;;;;31.83;16.93;;;16.20;51.30;;;;;;10274868;28;21458;-85
2022/03/25 12:06:05;;;;;;;31.33;13.03;;;15.70;53.80;;;;;;10260174;28;20311;-85
2022/03/25 12:11:11;;;;;;;13.13;10.40;;;16.90;51.70;;;;;;10292123;28;20696;-85
2022/03/25 12:16:45;;;;;;;30.33;16.80;;;15.70;54.50;;;;;;10306788;28;20268;-85
2022/03/25 12:21:48;;;;;;;34.20;17.50;;;16.00;54.10;;;;;;10274628;28;20253;-85
2022/03/25 12:27:02;;;;;;;34.90;19.27;;;16.30;54.00;;;;;;10274021;28;20229;-85
2022/03/25 12:32:13;;;;;;;14.03;9.50;;;16.30;53.50;;;;;;10274727;28;20299;-85
2022/03/25 12:37:26;;;;;;;12.30;8.97;;;17.60;51.10;;;;;;10275222;28;20236;-85
2022/03/25 12:42:28;;;;;;;17.57;11.97;;;18.00;50.40;;;;;;10273588;28;20670;-86
2022/03/25 12:47:36;;;;;;;13.37;8.97;;;18.00;50.20;;;;;;10290907;28;20681;-85
2022/03/25 12:52:38;;;;;;;17.77;11.77;;;17.90;50.50;;;;;;10271944;28;20261;-85
2022/03/25 12:57:41;;;;;;;13.03;9.17;;;17.30;51.60;;;;;;10289543;28;20992;-85
2022/03/25 13:02:45;;;;;;;32.70;17.33;;;16.80;52.70;;;;;;10290096;28;21027;-85
2022/03/25 13:07:56;;;;;;;17.13;10.80;;;16.70;53.10;;;;;;10272799;28;20300;-85
2022/03/25 13:13:01;;;;;;;34.47;17.37;;;15.90;54.20;;;;;;10271991;28;20291;-85
2022/03/25 13:18:06;;;;;;;16.93;11.63;;;16.70;53.70;;;;;;10272130;28;20338;-85
2022/03/25 13:23:20;;;;;;;33.53;18.43;;;17.00;52.20;;;;;;10271893;28;20316;-85
2022/03/25 13:28:28;;;;;;;14.20;9.20;;;17.20;52.50;;;;;;10258513;28;20201;-85
2022/03/25 13:33:48;;;;;;;25.03;11.73;;;17.60;51.20;;;;;;10290369;28;20260;-93
2022/03/25 13:38:52;;;;;;;32.70;15.47;;;17.10;52.20;;;;;;10304712;28;20213;-96
2022/03/25 13:44:04;;;;;;;36.63;16.07;;;16.30;54.10;;;;;;10303646;28;20276;-96
2022/03/25 13:49:13;;;;;;;24.00;12.50;;;16.00;56.10;;;;;;10284617;28;20231;-96
2022/03/25 13:54:18;;;;;;;24.50;12.57;;;16.30;55.10;;;;;;10299705;28;20234;-96
2022/03/25 13:59:31;;;;;;;29.90;12.70;;;15.80;57.30;;;;;;10271331;28;20258;-85
2022/03/25 14:04:34;;;;;;;23.00;11.63;;;16.10;57.90;;;;;;10256652;28;20714;-85
2022/03/25 14:09:40;;;;;;;23.93;12.63;;;17.10;55.60;;;;;;10272363;28;20227;-85
2022/03/25 14:14:50;;;;;;;18.47;9.77;;;17.10;55.10;;;;;;10272207;28;20606;-85
2022/03/25 14:20:09;;;;;;;23.00;13.47;;;18.00;53.70;;;;;;10270803;28;20280;-85
2022/03/25 14:25:13;;;;;;;17.10;9.67;;;17.00;55.60;;;;;;10271004;28;20664;-85
2022/03/25 14:30:16;;;;;;;22.20;9.13;;;;;;;;;;10270602;28;20299;-85
2022/03/25 14:35:20;;;;;;;26.47;12.50;;;17.90;53.40;;;;;;10287527;28;20742;-93
2022/03/25 14:40:24;;;;;;;25.83;14.23;;;16.80;55.70;;;;;;10267519;28;20213;-93
2022/03/25 14:45:27;;;;;;;13.90;8.77;;;15.80;58.00;;;;;;10286021;28;20561;-94
2022/03/25 14:50:30;;;;;;;27.43;10.20;;;17.10;55.60;;;;;;10291179;28;20196;-95
2022/03/25 14:55:35;;;;;;;18.43;9.97;;;17.50;54.70;;;;;;10268955;28;20233;-96
2022/03/25 15:00:38;;;;;;;17.20;8.70;;;17.40;55.00;;;;;;10261100;28;20214;-94
2022/03/25 15:05:44;;;;;;;12.53;8.53;;;16.80;55.80;;;;;;10250972;28;20226;-93
2022/03/25 15:10:46;;;;;;;20.60;9.30;;;16.40;56.90;;;;;;10248896;28;20207;-95
2022/03/25 15:15:49;;;;;;;16.47;10.17;;;16.40;56.60;;;;;;10265943;28;20210;-95
2022/03/25 15:20:52;;;;;;;12.77;8.37;;;16.10;57.50;;;;;;10265044;28;20198;-95
2022/03/25 15:25:56;;;;;;;11.67;8.73;;;16.50;56.70;;;;;;10266238;28;20218;-96
2022/03/25 15:36:19;;;;;;;20.07;12.33;;;16.20;57.80;;;;;;10267190;28;20205;-96
2022/03/25 15:41:42;;;;;;;27.97;14.00;;;16.10;58.40;;;;;;10260203;29;20214;-96
2022/03/25 15:46:45;;;;;;;12.80;8.67;;;15.50;59.70;;;;;;10278939;28;20234;-95
2022/03/25 15:51:52;;;;;;;12.37;8.07;;;16.40;57.10;;;;;;10281113;28;20237;-95
2022/03/25 15:57:09;;;;;;;18.03;10.57;;;16.90;55.70;;;;;;10293969;28;20232;-96
2022/03/25 16:02:12;;;;;;;26.37;13.13;;;16.90;55.70;;;;;;10304755;28;20209;-95
2022/03/25 16:07:16;;;;;;;30.73;12.30;;;16.70;56.50;;;;;;10302154;28;20230;-95
2022/03/25 16:12:19;;;;;;;13.83;8.57;;;16.50;56.80;;;;;;10284613;28;20218;-96
2022/03/25 16:17:22;;;;;;;14.40;8.57;;;16.00;57.70;;;;;;10291248;28;20213;-96
2022/03/25 16:22:26;;;;;;;14.70;9.07;;;16.60;56.40;;;;;;10296492;28;20206;-94
2022/03/25 16:27:29;;;;;;;29.13;12.73;;;16.70;56.00;;;;;;10294466;28;20225;-93
2022/03/25 16:32:34;;;;;;;29.30;14.20;;;16.90;56.20;;;;;;10294538;28;20255;-93
2022/03/25 16:37:38;;;;;;;26.83;15.00;;;16.70;57.10;;;;;;10277448;28;20261;-92
2022/03/25 16:42:43;;;;;;;49.63;21.33;;;15.80;58.60;;;;;;10297892;28;20627;-92
2022/03/25 16:47:47;;;;;;;50.43;20.97;;;16.40;59.10;;;;;;10278616;28;20295;-93
2022/03/25 16:52:50;;;;;;;54.87;19.60;;;16.70;60.40;;;;;;10262248;28;20252;-92
2022/03/25 16:57:53;;;;;;;35.63;15.90;;;16.50;59.10;;;;;;10296436;28;20215;-93
2022/03/25 17:02:55;;;;;;;42.73;19.17;;;16.10;58.60;;;;;;10265703;28;20268;-93
2022/03/25 17:07:58;;;;;;;35.87;15.73;;;15.70;61.70;;;;;;10265697;28;20211;-95
2022/03/25 17:13:01;;;;;;;133.13;41.70;;;15.60;63.00;;;;;;10267277;28;20699;-96
2022/03/25 17:18:03;;;;;;;64.07;22.73;;;15.20;67.40;;;;;;10266890;28;20198;-94
2022/03/25 17:23:06;;;;;;;46.53;18.83;;;15.10;67.90;;;;;;10278941;28;20242;-88
2022/03/25 17:28:08;;;;;;;33.20;16.60;;;15.10;67.10;;;;;;10290439;28;20749;-87
2022/03/25 17:33:11;;;;;;;35.70;18.10;;;15.30;76.90;;;;;;10292448;28;20667;-85
2022/03/25 17:38:14;;;;;;;41.90;18.17;;;15.70;76.70;;;;;;10307256;28;20217;-85
2022/03/25 17:43:16;;;;;;;33.80;17.40;;;15.80;85.50;;;;;;10305400;28;20307;-85
2022/03/25 17:48:22;;;;;;;35.63;17.70;;;16.10;93.40;;;;;;10287839;28;20267;-86
2022/03/25 17:53:29;;;;;;;27.13;16.37;;;16.30;97.80;;;;;;10286513;28;20659;-86
2022/03/25 17:58:32;;;;;;;31.43;16.20;;;16.40;99.90;;;;;;9932410;28;10000398;-85
2022/03/25 18:03:35;;;;;;;25.23;15.67;;;16.40;99.90;;;;;;10284757;28;20295;-86
2022/03/25 18:08:38;;;;;;;27.07;15.80;;;16.20;99.90;;;;;;10250927;28;20503;-85
2022/03/25 18:13:48;;;;;;;27.87;15.13;;;16.10;99.90;;;;;;10284855;28;20260;-85
2022/03/25 18:18:50;;;;;;;24.27;15.00;;;15.90;99.90;;;;;;10267734;28;20480;-86
2022/03/25 18:23:53;;;;;;;21.40;14.30;;;16.00;99.90;;;;;;10283864;28;20327;-85
2022/03/25 18:28:58;;;;;;;21.60;15.07;;;15.90;99.90;;;;;;10284655;28;20205;-86
2022/03/25 18:34:02;;;;;;;26.30;14.90;;;15.50;99.90;;;;;;10267980;28;20326;-85
2022/03/25 18:39:06;;;;;;;24.13;15.97;;;15.40;99.90;;;;;;10267642;28;20686;-86
2022/03/25 18:44:08;;;;;;;20.40;13.53;;;15.60;99.90;;;;;;10267091;28;20283;-85
2022/03/25 18:49:11;;;;;;;26.77;14.57;;;15.70;99.90;;;;;;10282768;28;20291;-85
2022/03/25 18:54:14;;;;;;;21.30;14.37;;;16.10;99.90;;;;;;10241891;29;20266;-85
2022/03/25 18:59:16;;;;;;;20.40;13.67;;;16.30;99.90;;;;;;10241496;29;20242;-84
2022/03/25 19:04:19;;;;;;;19.83;14.23;;;16.40;99.90;;;;;;10242614;28;20256;-85
2022/03/25 19:09:22;;;;;;;22.60;14.10;;;16.50;99.90;;;;;;10242555;28;20246;-85
2022/03/25 19:14:26;;;;;;;19.40;12.47;;;16.40;99.90;;;;;;10241605;29;20289;-86
2022/03/25 19:19:29;;;;;;;18.10;13.27;;;16.30;99.90;;;;;;10241857;29;20650;-85
2022/03/25 19:24:32;;;;;;;22.73;14.93;;;16.40;99.90;;;;;;10241985;28;20756;-85
2022/03/25 19:29:35;;;;;;;22.37;14.07;;;16.50;99.90;;;;;;10241733;29;20755;-85
2022/03/25 19:34:37;;;;;;;20.13;14.80;;;16.50;99.90;;;;;;10225572;29;20235;-85
2022/03/25 19:39:40;;;;;;;20.30;13.73;;;16.40;99.90;;;;;;10242391;28;20234;-85
2022/03/25 19:44:43;;;;;;;19.97;13.17;;;16.40;99.90;;;;;;10240553;28;20266;-85
2022/03/25 19:49:47;;;;;;;32.23;19.93;;;16.30;99.90;;;;;;10213283;29;20270;-85
2022/03/25 19:54:49;;;;;;;17.97;13.33;;;16.20;99.90;;;;;;10262052;28;20336;-85
2022/03/25 19:59:52;;;;;;;20.10;14.97;;;16.20;99.90;;;;;;10271923;28;20292;-85
2022/03/25 20:04:56;;;;;;;24.57;16.27;;;16.00;99.90;;;;;;10289376;28;20280;-85
2022/03/25 20:09:59;;;;;;;18.97;12.97;;;15.80;99.90;;;;;;10289088;28;20726;-85
2022/03/25 20:15:02;;;;;;;20.77;14.47;;;15.60;99.90;;;;;;10271673;28;20233;-85
2022/03/25 20:20:07;;;;;;;19.17;14.13;;;15.40;99.90;;;;;;10288684;28;20267;-86
2022/03/25 20:25:12;;;;;;;19.63;14.27;;;15.00;99.90;;;;;;10283696;28;20263;-85
2022/03/25 20:30:15;;;;;;;20.37;14.23;;;15.10;99.90;;;;;;10237029;29;20277;-85
2022/03/25 20:35:18;;;;;;;21.30;14.77;;;15.20;99.90;;;;;;10232047;29;20649;-85
2022/03/25 20:40:21;;;;;;;22.30;14.83;;;15.30;99.90;;;;;;10252211;28;20237;-85
2022/03/25 20:45:23;;;;;;;22.97;16.40;;;15.30;99.90;;;;;;10274442;28;20339;-85
2022/03/25 20:50:27;;;;;;;36.83;22.67;;;15.20;99.90;;;;;;10308121;28;20232;-86
2022/03/25 20:55:30;;;;;;;19.40;14.40;;;14.90;99.90;;;;;;10308381;28;20268;-87
2022/03/25 21:00:34;;;;;;;26.80;17.33;;;15.00;99.90;;;;;;10299381;28;20240;-85
2022/03/25 21:05:36;;;;;;;16.47;13.23;;;15.30;99.90;;;;;;10284112;28;20299;-85
2022/03/25 21:10:39;;;;;;;20.63;14.83;;;15.20;99.90;;;;;;10290413;28;20311;-85
2022/03/25 21:15:42;;;;;;;38.10;24.83;;;15.10;99.90;;;;;;10290279;28;20233;-86
2022/03/25 21:20:45;;;;;;;25.77;17.10;;;14.70;99.90;;;;;;10288520;28;20233;-85
2022/03/25 21:25:47;;;;;;;20.13;14.70;;;14.50;99.90;;;;;;10271275;28;20300;-84
2022/03/25 21:30:50;;;;;;;25.03;16.93;;;14.30;99.90;;;;;;10288616;28;20232;-85
2022/03/25 21:35:53;;;;;;;46.77;26.93;;;14.10;99.90;;;;;;10272922;28;20229;-84
2022/03/25 21:40:56;;;;;;;19.20;15.23;;;13.90;99.90;;;;;;10272189;28;20646;-84
2022/03/25 21:45:59;;;;;;;38.00;22.40;;;13.90;99.90;;;;;;10288774;28;20650;-84
2022/03/25 21:51:02;;;;;;;20.20;13.83;;;14.00;99.90;;;;;;10287788;28;20669;-84
2022/03/25 21:56:05;;;;;;;36.73;23.90;;;13.80;99.90;;;;;;10289527;28;20278;-84
2022/03/25 22:01:07;;;;;;;33.30;19.77;;;13.20;99.90;;;;;;10270751;28;20633;-84
2022/03/25 22:06:10;;;;;;;23.80;15.23;;;12.60;99.90;;;;;;10287405;28;20245;-85
2022/03/25 22:11:13;;;;;;;49.03;25.37;;;13.60;99.90;;;;;;10248495;28;20291;-85
2022/03/25 22:16:15;;;;;;;34.80;20.30;;;13.70;99.90;;;;;;10248977;28;20574;-85
2022/03/25 22:21:18;;;;;;;39.67;23.97;;;13.60;99.90;;;;;;10265167;28;20725;-85
2022/03/25 22:26:20;;;;;;;19.23;13.73;;;13.50;99.90;;;;;;10270777;28;20312;-85
2022/03/25 22:31:22;;;;;;;17.57;13.33;;;13.70;99.90;;;;;;10287878;28;20290;-85
2022/03/25 22:36:44;;;;;;;17.10;13.20;;;14.30;99.90;;;;;;10288469;28;20240;-85
2022/03/25 22:41:48;;;;;;;21.07;14.60;;;14.50;99.90;;;;;;10270066;28;20276;-84
2022/03/25 22:46:51;;;;;;;23.17;15.97;;;14.40;99.90;;;;;;10286850;28;20249;-84
2022/03/25 22:51:53;;;;;;;20.40;14.87;;;14.50;99.90;;;;;;10269915;28;20319;-84
2022/03/25 22:56:57;;;;;;;20.03;14.17;;;14.20;99.90;;;;;;10269463;28;20769;-84
2022/03/25 23:02:00;;;;;;;24.57;15.60;;;14.30;99.90;;;;;;10287525;28;20237;-84
2022/03/25 23:07:02;;;;;;;31.80;20.40;;;14.30;99.90;;;;;;10286340;28;20253;-84
2022/03/25 23:12:06;;;;;;;20.13;14.63;;;14.20;99.90;;;;;;10287552;28;20229;-85
2022/03/25 23:17:08;;;;;;;23.30;16.63;;;13.80;99.90;;;;;;10268759;28;20208;-84
2022/03/25 23:22:11;;;;;;;21.93;15.60;;;13.40;99.90;;;;;;10286835;28;20260;-84
2022/03/25 23:27:13;;;;;;;21.33;15.27;;;13.40;99.90;;;;;;10269446;28;20268;-85
2022/03/25 23:32:16;;;;;;;34.50;21.30;;;13.20;99.90;;;;;;10271354;28;20260;-85
2022/03/25 23:37:18;;;;;;;19.57;14.57;;;13.20;99.90;;;;;;10295278;28;20324;-85
2022/03/25 23:42:20;;;;;;;23.00;15.03;;;13.20;99.90;;;;;;10294917;28;20210;-84
2022/03/25 23:47:23;;;;;;;20.23;14.73;;;13.10;99.90;;;;;;10294213;28;20249;-84
2022/03/25 23:52:26;;;;;;;19.83;13.93;;;13.30;99.90;;;;;;10277137;28;20640;-85
2022/03/25 23:57:28;;;;;;;21.40;14.50;;;13.20;99.90;;;;;;10277747;28;20671;-85
